sensor_id;sensor_type;location;lat;lon;timestamp;pressure;altitude;pressure_sealevel;temperature;humidity
7105;BME280;3594;42.152;24.714;2023-05-23T00:00:22;-20026.13;;;13.42;nan
7105;BME280;3594;42.152;24.714;2023-05-23T00:02:48;-18747.94;;;13.63;nan
7105;BME280;3594;42.152;24.714;2023-05-23T00:05:13;-18104.69;;;13.54;nan
7105;BME280;3594;42.152;24.714;2023-05-23T00:07:42;-18103.63;;;13.48;nan
7105;BME280;3594;42.152;24.714;2023-05-23T00:10:08;-17459.75;;;13.34;nan
7105;BME280;3594;42.152;24.714;2023-05-23T00:12:33;-17139.28;;;13.35;nan
7105;BME280;3594;42.152;24.714;2023-05-23T00:14:59;-17781.31;;;13.39;nan
7105;BME280;3594;42.152;24.714;2023-05-23T00:17:24;-18421.88;;;13.35;nan
7105;BME280;3594;42.152;24.714;2023-05-23T00:19:50;-18743.81;;;13.42;nan
7105;BME280;3594;42.152;24.714;2023-05-23T00:22:15;-19057.09;;;13.04;nan
7105;BME280;3594;42.152;24.714;2023-05-23T00:24:42;-19702.50;;;13.27;nan
7105;BME280;3594;42.152;24.714;2023-05-23T00:27:08;-20017.91;;;13.03;nan
7105;BME280;3594;42.152;24.714;2023-05-23T00:29:33;-20023.88;;;13.32;nan
7105;BME280;3594;42.152;24.714;2023-05-23T00:31:59;-20022.81;;;13.26;nan
7105;BME280;3594;42.152;24.714;2023-05-23T00:34:24;-19705.00;;;13.39;nan
7105;BME280;3594;42.152;24.714;2023-05-23T00:36:49;-19378.50;;;13.09;nan
7105;BME280;3594;42.152;24.714;2023-05-23T00:39:15;-19382.44;;;13.29;nan
7105;BME280;3594;42.152;24.714;2023-05-23T00:41:45;-20021.75;;;13.21;nan
7105;BME280;3594;42.152;24.714;2023-05-23T00:44:11;-20021.00;;;13.18;nan
7105;BME280;3594;42.152;24.714;2023-05-23T00:46:37;-20018.34;;;13.05;nan
7105;BME280;3594;42.152;24.714;2023-05-23T00:49:03;-20025.47;;;13.39;nan
7105;BME280;3594;42.152;24.714;2023-05-23T00:51:28;-19702.28;;;13.26;nan
7105;BME280;3594;42.152;24.714;2023-05-23T00:53:54;-20658.44;;;13.03;nan
7105;BME280;3594;42.152;24.714;2023-05-23T00:56:20;-20662.91;;;13.23;nan
7105;BME280;3594;42.152;24.714;2023-05-23T00:58:45;-20025.47;;;13.39;nan
7105;BME280;3594;42.152;24.714;2023-05-23T01:01:12;-20026.13;;;13.42;nan
7105;BME280;3594;42.152;24.714;2023-05-23T01:03:38;-20657.09;;;12.97;nan
7105;BME280;3594;42.152;24.714;2023-05-23T01:06:04;-20658.97;;;13.06;nan
7105;BME280;3594;42.152;24.714;2023-05-23T01:08:29;-21295.66;;;12.90;nan
7105;BME280;3594;42.152;24.714;2023-05-23T01:11:00;-20976.34;;;12.93;nan
7105;BME280;3594;42.152;24.714;2023-05-23T01:18:50;-21621.47;;;13.14;nan
7105;BME280;3594;42.152;24.714;2023-05-23T01:21:20;-21932.72;;;12.77;nan
7105;BME280;3594;42.152;24.714;2023-05-23T01:26:43;-22896.75;;;12.94;nan
7105;BME280;3594;42.152;24.714;2023-05-23T01:29:27;-23217.09;;;12.95;nan
7105;BME280;3594;42.152;24.714;2023-05-23T01:31:56;-23214.44;;;12.85;nan
7105;BME280;3594;42.152;24.714;2023-05-23T01:34:22;-23217.34;;;12.96;nan
7105;BME280;3594;42.152;24.714;2023-05-23T01:36:49;-22573.59;;;12.81;nan
7105;BME280;3594;42.152;24.714;2023-05-23T01:39:17;-22569.00;;;12.63;nan
7105;BME280;3594;42.152;24.714;2023-05-23T01:41:43;-22567.84;;;12.58;nan
7105;BME280;3594;42.152;24.714;2023-05-23T01:44:08;-23209.66;;;12.67;nan
7105;BME280;3594;42.152;24.714;2023-05-23T01:46:34;-23533.06;;;12.80;nan
7105;BME280;3594;42.152;24.714;2023-05-23T01:49:04;-22896.22;;;12.92;nan
7105;BME280;3594;42.152;24.714;2023-05-23T01:51:31;-22887.25;;;12.57;nan
7105;BME280;3594;42.152;24.714;2023-05-23T01:53:58;-22250.28;;;12.67;nan
7105;BME280;3594;42.152;24.714;2023-05-23T01:56:24;-22253.03;;;12.78;nan
7105;BME280;3594;42.152;24.714;2023-05-23T01:58:51;-22565.81;;;12.50;nan
7105;BME280;3594;42.152;24.714;2023-05-23T02:01:17;-22571.03;;;12.71;nan
7105;BME280;3594;42.152;24.714;2023-05-23T02:03:42;-22246.91;;;12.54;nan
7105;BME280;3594;42.152;24.714;2023-05-23T02:06:09;-21615.84;;;12.90;nan
7105;BME280;3594;42.152;24.714;2023-05-23T02:08:34;-21287.56;;;12.55;nan
7105;BME280;3594;42.152;24.714;2023-05-23T02:11:00;-20975.88;;;12.91;nan
7105;BME280;3594;42.152;24.714;2023-05-23T02:13:25;-21290.03;;;12.65;nan
7105;BME280;3594;42.152;24.714;2023-05-23T02:15:51;-20975.09;;;12.88;nan
7105;BME280;3594;42.152;24.714;2023-05-23T02:18:16;-19371.19;;;12.73;nan
7105;BME280;3594;42.152;24.714;2023-05-23T02:20:42;-20012.38;;;12.77;nan
7105;BME280;3594;42.152;24.714;2023-05-23T02:23:08;-19995.81;;;11.99;nan
7105;BME280;3594;42.152;24.714;2023-05-23T02:25:33;-20330.53;;;12.68;nan
7105;BME280;3594;42.152;24.714;2023-05-23T02:27:59;-20643.78;;;12.37;nan
7105;BME280;3594;42.152;24.714;2023-05-23T02:30:24;-20330.53;;;12.68;nan
7105;BME280;3594;42.152;24.714;2023-05-23T02:32:50;-20324.97;;;12.42;nan
7105;BME280;3594;42.152;24.714;2023-05-23T02:35:15;-20002.97;;;12.32;nan
7105;BME280;3594;42.152;24.714;2023-05-23T02:37:41;-20011.09;;;12.71;nan
7105;BME280;3594;42.152;24.714;2023-05-23T02:40:07;-20330.53;;;12.68;nan
7105;BME280;3594;42.152;24.714;2023-05-23T02:42:33;-19373.63;;;12.85;nan
7105;BME280;3594;42.152;24.714;2023-05-23T02:44:58;-19686.06;;;12.47;nan
7105;BME280;3594;42.152;24.714;2023-05-23T02:47:24;-19685.13;;;12.43;nan
7105;BME280;3594;42.152;24.714;2023-05-23T02:49:49;-20010.44;;;12.68;nan
7105;BME280;3594;42.152;24.714;2023-05-23T02:52:14;-19366.31;;;12.49;nan
7105;BME280;3594;42.152;24.714;2023-05-23T02:54:41;-18723.91;;;12.37;nan
7105;BME280;3594;42.152;24.714;2023-05-23T02:57:06;-18726.59;;;12.51;nan
7105;BME280;3594;42.152;24.714;2023-05-23T02:59:32;-18408.03;;;12.60;nan
7105;BME280;3594;42.152;24.714;2023-05-23T03:01:58;-18732.47;;;12.82;nan
7105;BME280;3594;42.152;24.714;2023-05-23T03:04:23;-18088.06;;;12.61;nan
7105;BME280;3594;42.152;24.714;2023-05-23T03:06:48;-17449.22;;;12.71;nan
7105;BME280;3594;42.152;24.714;2023-05-23T03:09:18;-17447.41;;;12.61;nan
7105;BME280;3594;42.152;24.714;2023-05-23T03:11:44;-17769.22;;;12.69;nan
7105;BME280;3594;42.152;24.714;2023-05-23T03:14:10;-18415.81;;;13.02;nan
7105;BME280;3594;42.152;24.714;2023-05-23T03:16:35;-17774.94;;;13.02;nan
7105;BME280;3594;42.152;24.714;2023-05-23T03:19:00;-17771.06;;;12.80;nan
7105;BME280;3594;42.152;24.714;2023-05-23T03:21:26;-16814.09;;;13.07;nan
7105;BME280;3594;42.152;24.714;2023-05-23T03:23:51;-15528.63;;;12.88;nan
7105;BME280;3594;42.152;24.714;2023-05-23T03:26:17;-15853.16;;;13.15;nan
7105;BME280;3594;42.152;24.714;2023-05-23T03:28:42;-15535.19;;;13.35;nan
7105;BME280;3594;42.152;24.714;2023-05-23T03:31:07;-15210.19;;;13.04;nan
7105;BME280;3594;42.152;24.714;2023-05-23T03:33:33;-14893.66;;;13.38;nan
7105;BME280;3594;42.152;24.714;2023-05-23T03:35:58;-15535.13;;;13.35;nan
7105;BME280;3594;42.152;24.714;2023-05-23T03:38:23;-16174.91;;;13.21;nan
7105;BME280;3594;42.152;24.714;2023-05-23T03:40:49;-15852.38;;;13.09;nan
7105;BME280;3594;42.152;24.714;2023-05-23T03:43:14;-14892.56;;;13.29;nan
7105;BME280;3594;42.152;24.714;2023-05-23T03:45:40;-13933.03;;;13.59;nan
7105;BME280;3594;42.152;24.714;2023-05-23T03:48:05;-13289.00;;;13.44;nan
7105;BME280;3594;42.152;24.714;2023-05-23T03:50:31;-11682.66;;;13.42;nan
7105;BME280;3594;42.152;24.714;2023-05-23T03:52:56;-10722.56;;;14.08;nan
7105;BME280;3594;42.152;24.714;2023-05-23T03:55:22;-6536.53;;;14.76;nan
7105;BME280;3594;42.152;24.714;2023-05-23T03:57:49;21375.75;;;16.01;nan
7105;BME280;3594;42.152;24.714;2023-05-23T04:00:15;55422.84;;;17.21;nan
7105;BME280;3594;42.152;24.714;2023-05-23T04:02:40;60038.03;;;19.09;nan
7105;BME280;3594;42.152;24.714;2023-05-23T04:05:06;61117.75;;;19.81;nan
7105;BME280;3594;42.152;24.714;2023-05-23T04:07:32;61436.72;;;20.67;nan
7105;BME280;3594;42.152;24.714;2023-05-23T04:10:02;61905.47;;;21.84;nan
7105;BME280;3594;42.152;24.714;2023-05-23T04:12:27;62021.88;;;21.88;nan
7105;BME280;3594;42.152;24.714;2023-05-23T04:14:55;61833.97;;;21.59;nan
7105;BME280;3594;42.152;24.714;2023-05-23T04:17:22;61807.50;;;20.94;nan
7105;BME280;3594;42.152;24.714;2023-05-23T04:19:48;61761.91;;;20.63;nan
7105;BME280;3594;42.152;24.714;2023-05-23T04:22:13;61907.63;;;20.61;nan
7105;BME280;3594;42.152;24.714;2023-05-23T04:24:39;61597.88;;;19.70;nan
7105;BME280;3594;42.152;24.714;2023-05-23T04:27:05;61627.81;;;20.34;nan
7105;BME280;3594;42.152;24.714;2023-05-23T04:29:32;61739.97;;;20.94;nan
7105;BME280;3594;42.152;24.714;2023-05-23T04:31:58;61790.44;;;21.11;nan
7105;BME280;3594;42.152;24.714;2023-05-23T04:34:23;61817.66;;;21.52;nan
7105;BME280;3594;42.152;24.714;2023-05-23T04:36:49;61808.13;;;21.23;nan
7105;BME280;3594;42.152;24.714;2023-05-23T04:39:14;61828.44;;;21.34;nan
7105;BME280;3594;42.152;24.714;2023-05-23T04:41:41;61710.41;;;20.56;nan
7105;BME280;3594;42.152;24.714;2023-05-23T04:44:08;61857.56;;;20.69;nan
7105;BME280;3594;42.152;24.714;2023-05-23T04:46:34;61664.38;;;20.64;nan
7105;BME280;3594;42.152;24.714;2023-05-23T04:49:00;61623.25;;;20.29;nan
7105;BME280;3594;42.152;24.714;2023-05-23T04:51:26;61723.38;;;20.56;nan
7105;BME280;3594;42.152;24.714;2023-05-23T04:53:51;61664.53;;;20.43;nan
7105;BME280;3594;42.152;24.714;2023-05-23T04:56:17;61615.47;;;19.85;nan
7105;BME280;3594;42.152;24.714;2023-05-23T04:58:45;61641.44;;;20.13;nan
7105;BME280;3594;42.152;24.714;2023-05-23T05:01:11;61631.41;;;20.11;nan
7105;BME280;3594;42.152;24.714;2023-05-23T05:03:38;61670.78;;;20.33;nan
7105;BME280;3594;42.152;24.714;2023-05-23T05:06:05;61727.84;;;20.49;nan
7105;BME280;3594;42.152;24.714;2023-05-23T05:08:32;61794.25;;;20.11;nan
7105;BME280;3594;42.152;24.714;2023-05-23T05:10:58;61853.88;;;20.32;nan
7105;BME280;3594;42.152;24.714;2023-05-23T05:13:23;61816.47;;;21.39;nan
7105;BME280;3594;42.152;24.714;2023-05-23T05:15:48;61849.13;;;21.54;nan
7105;BME280;3594;42.152;24.714;2023-05-23T05:18:14;61863.19;;;21.44;nan
7105;BME280;3594;42.152;24.714;2023-05-23T05:20:42;61815.34;;;21.06;nan
7105;BME280;3594;42.152;24.714;2023-05-23T05:23:12;61711.41;;;20.34;nan
7105;BME280;3594;42.152;24.714;2023-05-23T05:25:37;61617.25;;;19.82;nan
7105;BME280;3594;42.152;24.714;2023-05-23T05:28:02;61602.94;;;19.63;nan
7105;BME280;3594;42.152;24.714;2023-05-23T05:30:30;61558.66;;;19.12;nan
7105;BME280;3594;42.152;24.714;2023-05-23T05:33:00;61487.94;;;19.09;nan
7105;BME280;3594;42.152;24.714;2023-05-23T05:35:26;61488.19;;;18.95;nan
7105;BME280;3594;42.152;24.714;2023-05-23T05:37:52;61552.41;;;19.22;nan
7105;BME280;3594;42.152;24.714;2023-05-23T05:40:17;61520.78;;;19.06;nan
7105;BME280;3594;42.152;24.714;2023-05-23T05:42:42;61549.41;;;19.45;nan
7105;BME280;3594;42.152;24.714;2023-05-23T05:45:08;61533.69;;;19.38;nan
7105;BME280;3594;42.152;24.714;2023-05-23T05:47:35;61504.19;;;19.16;nan
7105;BME280;3594;42.152;24.714;2023-05-23T05:50:05;61514.41;;;19.09;nan
7105;BME280;3594;42.152;24.714;2023-05-23T05:52:32;61528.94;;;19.31;nan
7105;BME280;3594;42.152;24.714;2023-05-23T05:55:05;61542.38;;;19.20;nan
7105;BME280;3594;42.152;24.714;2023-05-23T05:57:31;61591.25;;;19.38;nan
7105;BME280;3594;42.152;24.714;2023-05-23T05:59:56;61587.16;;;19.44;nan
7105;BME280;3594;42.152;24.714;2023-05-23T06:02:21;61572.53;;;19.70;nan
7105;BME280;3594;42.152;24.714;2023-05-23T06:04:47;61601.13;;;19.82;nan
7105;BME280;3594;42.152;24.714;2023-05-23T06:07:12;61644.63;;;19.81;nan
7105;BME280;3594;42.152;24.714;2023-05-23T06:09:38;61682.53;;;20.20;nan
7105;BME280;3594;42.152;24.714;2023-05-23T06:12:03;61732.19;;;20.34;nan
7105;BME280;3594;42.152;24.714;2023-05-23T06:14:29;61700.13;;;20.19;nan
7105;BME280;3594;42.152;24.714;2023-05-23T06:16:54;61738.38;;;20.72;nan
7105;BME280;3594;42.152;24.714;2023-05-23T06:19:20;61806.09;;;21.07;nan
7105;BME280;3594;42.152;24.714;2023-05-23T06:21:45;61838.56;;;21.47;nan
7105;BME280;3594;42.152;24.714;2023-05-23T06:24:10;61903.28;;;21.77;nan
7105;BME280;3594;42.152;24.714;2023-05-23T06:26:36;61943.78;;;21.76;nan
7105;BME280;3594;42.152;24.714;2023-05-23T06:29:02;62044.81;;;21.09;nan
7105;BME280;3594;42.152;24.714;2023-05-23T06:31:27;61923.69;;;21.51;nan
7105;BME280;3594;42.152;24.714;2023-05-23T06:33:53;61885.53;;;21.38;nan
7105;BME280;3594;42.152;24.714;2023-05-23T06:36:18;61894.22;;;21.37;nan
7105;BME280;3594;42.152;24.714;2023-05-23T06:38:44;61929.97;;;21.73;nan
7105;BME280;3594;42.152;24.714;2023-05-23T06:41:09;61865.16;;;21.15;nan
7105;BME280;3594;42.152;24.714;2023-05-23T06:43:35;61897.38;;;21.37;nan
7105;BME280;3594;42.152;24.714;2023-05-23T06:46:01;61825.69;;;20.94;nan
7105;BME280;3594;42.152;24.714;2023-05-23T06:48:26;62085.13;;;20.96;nan
7105;BME280;3594;42.152;24.714;2023-05-23T06:50:51;61834.78;;;20.86;nan
7105;BME280;3594;42.152;24.714;2023-05-23T06:53:17;61838.09;;;20.94;nan
7105;BME280;3594;42.152;24.714;2023-05-23T06:55:42;61832.09;;;21.07;nan
7105;BME280;3594;42.152;24.714;2023-05-23T06:58:08;61869.03;;;21.24;nan
7105;BME280;3594;42.152;24.714;2023-05-23T07:00:33;61848.50;;;21.26;nan
7105;BME280;3594;42.152;24.714;2023-05-23T07:02:59;61873.00;;;21.27;nan
7105;BME280;3594;42.152;24.714;2023-05-23T07:05:27;61870.66;;;21.30;nan
7105;BME280;3594;42.152;24.714;2023-05-23T07:07:52;61887.31;;;21.35;nan
7105;BME280;3594;42.152;24.714;2023-05-23T07:10:18;61973.69;;;21.52;nan
7105;BME280;3594;42.152;24.714;2023-05-23T07:12:44;61892.34;;;21.28;nan
7105;BME280;3594;42.152;24.714;2023-05-23T07:15:10;61972.53;;;21.83;nan
7105;BME280;3594;42.152;24.714;2023-05-23T07:17:36;61959.22;;;21.85;nan
7105;BME280;3594;42.152;24.714;2023-05-23T07:20:02;62135.72;;;22.13;nan
7105;BME280;3594;42.152;24.714;2023-05-23T07:22:29;62001.00;;;22.41;nan
7105;BME280;3594;42.152;24.714;2023-05-23T07:24:55;62014.19;;;22.32;nan
7105;BME280;3594;42.152;24.714;2023-05-23T07:27:21;62025.00;;;22.41;nan
7105;BME280;3594;42.152;24.714;2023-05-23T07:29:46;61993.94;;;22.16;nan
7105;BME280;3594;42.152;24.714;2023-05-23T07:32:12;61995.53;;;22.38;nan
7105;BME280;3594;42.152;24.714;2023-05-23T07:34:37;62211.03;;;22.42;nan
7105;BME280;3594;42.152;24.714;2023-05-23T07:37:03;62041.03;;;22.35;nan
7105;BME280;3594;42.152;24.714;2023-05-23T07:39:28;62071.03;;;22.55;nan
7105;BME280;3594;42.152;24.714;2023-05-23T07:41:53;62033.38;;;22.10;nan
7105;BME280;3594;42.152;24.714;2023-05-23T07:44:19;62008.66;;;22.18;nan
7105;BME280;3594;42.152;24.714;2023-05-23T07:46:45;62084.06;;;22.71;nan
7105;BME280;3594;42.152;24.714;2023-05-23T07:49:10;62245.97;;;22.64;nan
7105;BME280;3594;42.152;24.714;2023-05-23T07:51:35;62060.69;;;22.66;nan
7105;BME280;3594;42.152;24.714;2023-05-23T07:54:01;62026.72;;;22.27;nan
7105;BME280;3594;42.152;24.714;2023-05-23T07:56:27;62201.81;;;22.39;nan
7105;BME280;3594;42.152;24.714;2023-05-23T07:58:52;62040.03;;;22.41;nan
7105;BME280;3594;42.152;24.714;2023-05-23T08:01:18;62096.94;;;22.80;nan
7105;BME280;3594;42.152;24.714;2023-05-23T08:03:44;62105.31;;;22.97;nan
7105;BME280;3594;42.152;24.714;2023-05-23T08:06:09;62174.16;;;23.02;nan
7105;BME280;3594;42.152;24.714;2023-05-23T08:08:35;62203.84;;;23.40;nan
7105;BME280;3594;42.152;24.714;2023-05-23T08:11:02;62169.09;;;23.25;nan
7105;BME280;3594;42.152;24.714;2023-05-23T08:13:27;62237.06;;;23.65;nan
7105;BME280;3594;42.152;24.714;2023-05-23T08:15:53;62193.44;;;23.40;nan
7105;BME280;3594;42.152;24.714;2023-05-23T08:18:21;62203.47;;;23.63;nan
7105;BME280;3594;42.152;24.714;2023-05-23T08:20:49;62183.44;;;23.94;nan
7105;BME280;3594;42.152;24.714;2023-05-23T08:23:15;62315.13;;;24.27;nan
7105;BME280;3594;42.152;24.714;2023-05-23T08:25:42;62328.34;;;24.34;nan
7105;BME280;3594;42.152;24.714;2023-05-23T08:28:07;62335.09;;;24.12;nan
7105;BME280;3594;42.152;24.714;2023-05-23T08:30:33;62354.13;;;24.52;nan
7105;BME280;3594;42.152;24.714;2023-05-23T08:32:58;62348.91;;;24.52;nan
7105;BME280;3594;42.152;24.714;2023-05-23T08:35:25;62303.44;;;24.91;nan
7105;BME280;3594;42.152;24.714;2023-05-23T08:37:50;62298.13;;;24.79;nan
7105;BME280;3594;42.152;24.714;2023-05-23T08:40:20;62471.16;;;24.68;nan
7105;BME280;3594;42.152;24.714;2023-05-23T08:42:50;62309.81;;;24.92;nan
7105;BME280;3594;42.152;24.714;2023-05-23T08:45:16;62314.13;;;25.21;nan
7105;BME280;3594;42.152;24.714;2023-05-23T08:47:43;62303.06;;;25.09;nan
7105;BME280;3594;42.152;24.714;2023-05-23T08:50:13;62340.00;;;25.07;nan
7105;BME280;3594;42.152;24.714;2023-05-23T08:52:49;62297.91;;;25.32;nan
7105;BME280;3594;42.152;24.714;2023-05-23T08:55:19;62501.97;;;25.48;nan
7105;BME280;3594;42.152;24.714;2023-05-23T08:57:44;62350.84;;;25.61;nan
7105;BME280;3594;42.152;24.714;2023-05-23T09:00:13;62697.94;;;25.71;nan
7105;BME280;3594;42.152;24.714;2023-05-23T09:02:42;62480.25;;;25.62;nan
7105;BME280;3594;42.152;24.714;2023-05-23T09:05:08;62290.06;;;25.72;nan
7105;BME280;3594;42.152;24.714;2023-05-23T09:07:37;62345.97;;;25.70;nan
7105;BME280;3594;42.152;24.714;2023-05-23T09:10:07;62388.38;;;25.59;nan
7105;BME280;3594;42.152;24.714;2023-05-23T09:12:33;62438.72;;;25.11;nan
7105;BME280;3594;42.152;24.714;2023-05-23T09:15:02;62241.09;;;24.84;nan
7105;BME280;3594;42.152;24.714;2023-05-23T09:17:27;62316.69;;;24.82;nan
7105;BME280;3594;42.152;24.714;2023-05-23T09:19:53;62463.41;;;25.61;nan
7105;BME280;3594;42.152;24.714;2023-05-23T09:22:23;62402.78;;;25.07;nan
7105;BME280;3594;42.152;24.714;2023-05-23T09:24:50;62301.97;;;25.20;nan
7105;BME280;3594;42.152;24.714;2023-05-23T09:27:17;62371.88;;;25.56;nan
7105;BME280;3594;42.152;24.714;2023-05-23T09:29:42;62387.38;;;25.65;nan
7105;BME280;3594;42.152;24.714;2023-05-23T09:32:16;62385.28;;;25.82;nan
7105;BME280;3594;42.152;24.714;2023-05-23T09:35:03;62553.78;;;26.41;nan
7105;BME280;3594;42.152;24.714;2023-05-23T09:37:29;62592.22;;;26.70;nan
7105;BME280;3594;42.152;24.714;2023-05-23T09:39:58;62516.00;;;26.51;nan
7105;BME280;3594;42.152;24.714;2023-05-23T09:42:23;62585.84;;;26.25;nan
7105;BME280;3594;42.152;24.714;2023-05-23T09:44:49;62644.47;;;25.49;nan
7105;BME280;3594;42.152;24.714;2023-05-23T09:47:16;62317.22;;;24.98;nan
7105;BME280;3594;42.152;24.714;2023-05-23T09:49:45;62283.59;;;25.08;nan
7105;BME280;3594;42.152;24.714;2023-05-23T09:52:14;62211.56;;;24.53;nan
7105;BME280;3594;42.152;24.714;2023-05-23T09:54:39;62173.47;;;23.71;nan
7105;BME280;3594;42.152;24.714;2023-05-23T09:57:09;62153.38;;;24.18;nan
7105;BME280;3594;42.152;24.714;2023-05-23T09:59:39;62300.19;;;24.35;nan
7105;BME280;3594;42.152;24.714;2023-05-23T10:02:06;62387.59;;;24.96;nan
7105;BME280;3594;42.152;24.714;2023-05-23T10:04:34;62399.38;;;25.32;nan
7105;BME280;3594;42.152;24.714;2023-05-23T10:07:19;62304.06;;;25.03;nan
7105;BME280;3594;42.152;24.714;2023-05-23T10:09:53;62324.94;;;25.19;nan
7105;BME280;3594;42.152;24.714;2023-05-23T10:15:06;62472.06;;;25.47;nan
7105;BME280;3594;42.152;24.714;2023-05-23T10:17:52;62503.84;;;26.17;nan
7105;BME280;3594;42.152;24.714;2023-05-23T10:20:25;62557.25;;;26.11;nan
7105;BME280;3594;42.152;24.714;2023-05-23T10:22:54;62413.03;;;26.32;nan
7105;BME280;3594;42.152;24.714;2023-05-23T10:25:20;62505.03;;;26.46;nan
7105;BME280;3594;42.152;24.714;2023-05-23T10:27:47;62581.41;;;26.12;nan
7105;BME280;3594;42.152;24.714;2023-05-23T10:30:14;62406.38;;;25.89;nan
7105;BME280;3594;42.152;24.714;2023-05-23T10:32:43;62395.28;;;25.77;nan
7105;BME280;3594;42.152;24.714;2023-05-23T10:38:17;62404.09;;;25.59;nan
7105;BME280;3594;42.152;24.714;2023-05-23T10:41:15;62341.25;;;25.31;nan
7105;BME280;3594;42.152;24.714;2023-05-23T10:46:54;62277.47;;;25.10;nan
7105;BME280;3594;42.152;24.714;2023-05-23T10:49:36;62397.72;;;24.82;nan
7105;BME280;3594;42.152;24.714;2023-05-23T10:52:02;62637.25;;;25.45;nan
7105;BME280;3594;42.152;24.714;2023-05-23T10:54:34;62425.84;;;25.90;nan
7105;BME280;3594;42.152;24.714;2023-05-23T10:57:03;62294.00;;;23.76;nan
7105;BME280;3594;42.152;24.714;2023-05-23T10:59:30;62356.69;;;25.73;nan
7105;BME280;3594;42.152;24.714;2023-05-23T11:01:56;62453.66;;;25.96;nan
7105;BME280;3594;42.152;24.714;2023-05-23T11:04:25;62415.75;;;26.00;nan
7105;BME280;3594;42.152;24.714;2023-05-23T11:06:53;62433.09;;;26.06;nan
7105;BME280;3594;42.152;24.714;2023-05-23T11:09:19;62569.94;;;26.18;nan
7105;BME280;3594;42.152;24.714;2023-05-23T11:12:06;62512.94;;;26.58;nan
7105;BME280;3594;42.152;24.714;2023-05-23T11:17:29;62409.03;;;26.01;nan
7105;BME280;3594;42.152;24.714;2023-05-23T11:20:01;62451.19;;;26.31;nan
7105;BME280;3594;42.152;24.714;2023-05-23T11:22:28;62613.69;;;26.31;nan
7105;BME280;3594;42.152;24.714;2023-05-23T11:24:56;62517.66;;;26.69;nan
7105;BME280;3594;42.152;24.714;2023-05-23T11:30:12;62475.72;;;26.41;nan
7105;BME280;3594;42.152;24.714;2023-05-23T11:32:38;62411.53;;;25.93;nan
7105;BME280;3594;42.152;24.714;2023-05-23T11:35:09;62409.69;;;26.24;nan
7105;BME280;3594;42.152;24.714;2023-05-23T11:37:37;62347.72;;;25.83;nan
7105;BME280;3594;42.152;24.714;2023-05-23T11:43:16;62324.38;;;25.46;nan
7105;BME280;3594;42.152;24.714;2023-05-23T11:45:42;62496.75;;;25.65;nan
7105;BME280;3594;42.152;24.714;2023-05-23T11:48:12;62379.47;;;25.81;nan
7105;BME280;3594;42.152;24.714;2023-05-23T11:50:53;62389.66;;;25.95;nan
7105;BME280;3594;42.152;24.714;2023-05-23T11:53:20;62295.53;;;25.63;nan
7105;BME280;3594;42.152;24.714;2023-05-23T11:56:00;62719.50;;;26.04;nan
7105;BME280;3594;42.152;24.714;2023-05-23T11:58:28;62336.53;;;25.76;nan
7105;BME280;3594;42.152;24.714;2023-05-23T12:01:07;62433.66;;;25.02;nan
7105;BME280;3594;42.152;24.714;2023-05-23T12:03:34;62464.78;;;25.32;nan
7105;BME280;3594;42.152;24.714;2023-05-23T12:06:08;62374.81;;;25.10;nan
7105;BME280;3594;42.152;24.714;2023-05-23T12:08:35;62574.44;;;25.45;nan
7105;BME280;3594;42.152;24.714;2023-05-23T12:11:01;62443.44;;;25.55;nan
7105;BME280;3594;42.152;24.714;2023-05-23T12:13:28;62540.88;;;25.99;nan
7105;BME280;3594;42.152;24.714;2023-05-23T12:15:54;62519.72;;;25.48;nan
7105;BME280;3594;42.152;24.714;2023-05-23T12:18:20;62361.94;;;25.01;nan
7105;BME280;3594;42.152;24.714;2023-05-23T12:20:48;62386.50;;;25.06;nan
7105;BME280;3594;42.152;24.714;2023-05-23T12:23:21;62381.38;;;24.70;nan
7105;BME280;3594;42.152;24.714;2023-05-23T12:25:54;62359.84;;;24.57;nan
7105;BME280;3594;42.152;24.714;2023-05-23T12:28:33;62442.13;;;25.30;nan
7105;BME280;3594;42.152;24.714;2023-05-23T12:30:58;62566.78;;;25.69;nan
7105;BME280;3594;42.152;24.714;2023-05-23T12:33:32;62448.41;;;25.52;nan
7105;BME280;3594;42.152;24.714;2023-05-23T12:35:57;62397.72;;;24.98;nan
7105;BME280;3594;42.152;24.714;2023-05-23T12:38:27;62372.31;;;24.89;nan
7105;BME280;3594;42.152;24.714;2023-05-23T12:41:14;62465.59;;;25.35;nan
7105;BME280;3594;42.152;24.714;2023-05-23T12:43:48;62434.19;;;25.51;nan
7105;BME280;3594;42.152;24.714;2023-05-23T12:46:14;62438.06;;;25.31;nan
7105;BME280;3594;42.152;24.714;2023-05-23T12:48:40;62463.72;;;25.26;nan
7105;BME280;3594;42.152;24.714;2023-05-23T12:51:05;62412.56;;;25.27;nan
7105;BME280;3594;42.152;24.714;2023-05-23T12:53:30;62453.34;;;25.54;nan
7105;BME280;3594;42.152;24.714;2023-05-23T12:55:56;62614.81;;;25.14;nan
7105;BME280;3594;42.152;24.714;2023-05-23T12:58:21;62437.59;;;25.70;nan
7105;BME280;3594;42.152;24.714;2023-05-23T13:00:47;62736.31;;;25.73;nan
7105;BME280;3594;42.152;24.714;2023-05-23T13:03:14;62470.00;;;25.64;nan
7105;BME280;3594;42.152;24.714;2023-05-23T13:05:39;62469.41;;;25.80;nan
7105;BME280;3594;42.152;24.714;2023-05-23T13:08:05;62549.75;;;25.93;nan
7105;BME280;3594;42.152;24.714;2023-05-23T13:10:31;62507.00;;;26.06;nan
7105;BME280;3594;42.152;24.714;2023-05-23T13:12:56;62448.97;;;25.69;nan
7105;BME280;3594;42.152;24.714;2023-05-23T13:15:21;62773.34;;;25.87;nan
7105;BME280;3594;42.152;24.714;2023-05-23T13:17:47;62687.50;;;25.50;nan
7105;BME280;3594;42.152;24.714;2023-05-23T13:20:13;62487.44;;;25.66;nan
7105;BME280;3594;42.152;24.714;2023-05-23T13:22:39;62461.00;;;25.63;nan
7105;BME280;3594;42.152;24.714;2023-05-23T13:25:06;62446.94;;;25.69;nan
7105;BME280;3594;42.152;24.714;2023-05-23T13:27:33;62441.13;;;25.69;nan
7105;BME280;3594;42.152;24.714;2023-05-23T13:29:58;62482.63;;;26.03;nan
7105;BME280;3594;42.152;24.714;2023-05-23T13:32:24;62465.47;;;25.88;nan
7105;BME280;3594;42.152;24.714;2023-05-23T13:34:50;62496.94;;;26.00;nan
7105;BME280;3594;42.152;24.714;2023-05-23T13:37:15;62536.88;;;26.12;nan
7105;BME280;3594;42.152;24.714;2023-05-23T13:39:41;62563.50;;;26.21;nan
7105;BME280;3594;42.152;24.714;2023-05-23T13:42:06;62532.34;;;26.19;nan
7105;BME280;3594;42.152;24.714;2023-05-23T13:44:32;62532.47;;;25.99;nan
7105;BME280;3594;42.152;24.714;2023-05-23T13:47:08;62569.13;;;26.31;nan
7105;BME280;3594;42.152;24.714;2023-05-23T13:49:34;62498.22;;;25.80;nan
7105;BME280;3594;42.152;24.714;2023-05-23T13:51:59;62420.59;;;25.62;nan
7105;BME280;3594;42.152;24.714;2023-05-23T13:54:25;62541.38;;;26.04;nan